Time;durP1;ratioP1;P1;durP2;ratioP2;P2;SDS_P1;SDS_P2;PMS_P1;PMS_P2;Temp;Humidity;BMP_temperature;BMP_pressure;BME280_temperature;BME280_humidity;BME280_pressure;Samples;Min_cycle;Max_cycle;Signal;HPM_P1;HPM_P2
2023/09/10 00:00:45;;;;;;;7.80;7.00;;;21.50;99.90;;;;;;5123766;27;20803;-85
2023/09/10 00:03:13;;;;;;;10.73;7.53;;;21.40;99.90;;;;;;5107520;28;20488;-84
2023/09/10 00:05:39;;;;;;;8.30;6.93;;;21.40;99.90;;;;;;5107667;27;20770;-85
2023/09/10 00:08:05;;;;;;;10.27;7.40;;;21.30;99.90;;;;;;5107655;28;20889;-81
2023/09/10 00:10:30;;;;;;;11.57;7.90;;;21.20;99.90;;;;;;5123728;27;20192;-84
2023/09/10 00:12:56;;;;;;;8.50;7.13;;;21.20;99.90;;;;;;5123194;27;20932;-81
2023/09/10 00:15:22;;;;;;;7.37;6.60;;;21.20;99.90;;;;;;5123397;27;20220;-80
2023/09/10 00:17:47;;;;;;;8.50;7.60;;;21.10;99.90;;;;;;5123212;27;20186;-83
2023/09/10 00:20:13;;;;;;;10.00;7.70;;;21.10;99.90;;;;;;5123503;27;20200;-81
2023/09/10 00:22:42;;;;;;;8.60;6.73;;;21.10;99.90;;;;;;5123168;27;20260;-83
2023/09/10 00:25:09;;;;;;;7.83;7.03;;;21.10;99.90;;;;;;5122615;27;20203;-85
2023/09/10 00:27:35;;;;;;;8.70;7.10;;;21.10;99.90;;;;;;5123225;27;20405;-80
2023/09/10 00:30:01;;;;;;;8.03;7.23;;;21.10;99.90;;;;;;5123116;27;20460;-83
2023/09/10 00:32:26;;;;;;;10.00;7.27;;;21.10;99.90;;;;;;5122111;27;20172;-83
2023/09/10 00:34:52;;;;;;;8.00;7.03;;;21.10;99.90;;;;;;5107299;28;20219;-80
2023/09/10 00:37:18;;;;;;;12.47;8.97;;;21.10;99.90;;;;;;5107157;28;20206;-85
2023/09/10 00:39:44;;;;;;;7.17;6.47;;;21.10;99.90;;;;;;5107613;28;20192;-84
2023/09/10 00:42:10;;;;;;;9.40;7.93;;;21.00;99.90;;;;;;5122675;27;20202;-84
2023/09/10 00:44:37;;;;;;;8.50;6.43;;;21.00;99.90;;;;;;5123062;27;20542;-84
2023/09/10 00:47:04;;;;;;;8.70;7.60;;;21.00;99.90;;;;;;5122811;27;20424;-81
2023/09/10 00:49:30;;;;;;;10.20;7.57;;;20.90;99.90;;;;;;5106804;28;20521;-84
2023/09/10 00:52:00;;;;;;;8.33;7.43;;;20.90;99.90;;;;;;5107340;28;20953;-80
2023/09/10 00:54:29;;;;;;;7.87;6.63;;;20.80;99.90;;;;;;5122712;27;20515;-81
2023/09/10 00:56:55;;;;;;;10.70;7.80;;;20.80;99.90;;;;;;5122750;27;20451;-81
2023/09/10 00:59:21;;;;;;;8.77;7.43;;;20.70;99.90;;;;;;5122389;27;20452;-85
2023/09/10 01:01:48;;;;;;;10.50;6.83;;;20.70;99.90;;;;;;5106700;28;20176;-84
2023/09/10 01:04:16;;;;;;;9.17;8.10;;;20.60;99.90;;;;;;5122427;27;20208;-80
2023/09/10 01:06:42;;;;;;;8.97;8.07;;;20.60;99.90;;;;;;5122326;27;20408;-85
2023/09/10 01:09:08;;;;;;;8.50;6.90;;;20.50;99.90;;;;;;5106361;28;20423;-80
2023/09/10 01:11:46;;;;;;;8.33;7.33;;;20.50;99.90;;;;;;5122648;27;20261;-81
2023/09/10 01:14:18;;;;;;;8.20;7.37;;;20.40;99.90;;;;;;5122218;27;20222;-80
2023/09/10 01:16:44;;;;;;;8.70;6.90;;;20.30;99.90;;;;;;5106713;28;20762;-81
2023/09/10 01:19:59;;;;;;;9.17;7.43;;;20.30;99.90;;;;;;5106581;28;20420;-81
2023/09/10 01:22:39;;;;;;;8.87;7.50;;;20.20;99.90;;;;;;5073352;28;20433;-85
2023/09/10 01:25:06;;;;;;;9.33;7.10;;;20.20;99.90;;;;;;5122223;27;20483;-81
2023/09/10 01:27:32;;;;;;;9.80;7.17;;;20.10;99.90;;;;;;5122041;27;20407;-84
2023/09/10 01:29:57;;;;;;;8.83;7.73;;;20.10;99.90;;;;;;5121844;27;20463;-84
2023/09/10 01:32:35;;;;;;;9.40;7.53;;;20.10;99.90;;;;;;5106124;28;20171;-80
2023/09/10 01:35:21;;;;;;;8.50;7.40;;;20.10;99.90;;;;;;5120768;27;20479;-81
2023/09/10 01:38:03;;;;;;;9.10;7.30;;;20.10;99.90;;;;;;5121744;27;20424;-85
2023/09/10 01:40:35;;;;;;;7.53;6.83;;;20.10;99.90;;;;;;5106508;28;20511;-81
2023/09/10 01:43:05;;;;;;;7.73;6.40;;;20.00;99.90;;;;;;5121674;27;20405;-84
2023/09/10 01:45:35;;;;;;;7.80;7.00;;;20.00;99.90;;;;;;5106275;28;20518;-80
2023/09/10 01:48:01;;;;;;;8.27;7.37;;;20.00;99.90;;;;;;5105654;28;20485;-81
2023/09/10 01:50:29;;;;;;;7.60;6.60;;;20.10;99.90;;;;;;5106360;28;20456;-85
2023/09/10 01:52:56;;;;;;;9.53;8.53;;;20.10;99.90;;;;;;5121602;28;20415;-84
2023/09/10 01:55:22;;;;;;;8.93;7.50;;;20.00;99.90;;;;;;5105971;28;20536;-81
2023/09/10 01:57:48;;;;;;;7.70;7.00;;;20.00;99.90;;;;;;5121897;28;20412;-83
2023/09/10 02:00:14;;;;;;;8.47;7.27;;;20.00;99.90;;;;;;5106299;28;20203;-80
2023/09/10 02:02:39;;;;;;;8.93;6.77;;;20.00;99.90;;;;;;5121838;28;20180;-80
2023/09/10 02:05:05;;;;;;;6.93;6.33;;;20.00;99.90;;;;;;5105723;28;20816;-85
2023/09/10 02:07:31;;;;;;;8.07;7.27;;;20.00;99.90;;;;;;5105614;28;20581;-85
2023/09/10 02:09:58;;;;;;;8.30;7.20;;;20.00;99.90;;;;;;5121726;28;20592;-85
2023/09/10 02:12:24;;;;;;;8.33;7.27;;;19.90;99.90;;;;;;5121562;28;20172;-81
2023/09/10 02:14:50;;;;;;;8.17;7.37;;;19.80;99.90;;;;;;5106012;28;20496;-81
2023/09/10 02:17:16;;;;;;;8.50;6.80;;;19.80;99.90;;;;;;5105733;28;20470;-80
2023/09/10 02:19:42;;;;;;;8.70;7.30;;;19.80;99.90;;;;;;5105774;28;20252;-81
2023/09/10 02:22:07;;;;;;;7.80;7.00;;;19.80;99.90;;;;;;5121607;28;20228;-84
2023/09/10 02:24:33;;;;;;;9.20;7.40;;;19.70;99.90;;;;;;5106080;28;20202;-84
2023/09/10 02:26:58;;;;;;;9.17;8.07;;;19.70;99.90;;;;;;5121230;28;20373;-80
2023/09/10 02:29:24;;;;;;;8.73;7.40;;;19.70;99.90;;;;;;5121596;28;20283;-85
2023/09/10 02:31:50;;;;;;;9.50;8.40;;;19.60;99.90;;;;;;5105745;28;20233;-80
2023/09/10 02:34:15;;;;;;;9.80;7.27;;;19.60;99.90;;;;;;5121026;28;20248;-81
2023/09/10 02:36:41;;;;;;;7.70;6.40;;;19.50;99.90;;;;;;5105899;28;20213;-80
2023/09/10 02:39:06;;;;;;;7.07;6.30;;;19.50;99.90;;;;;;5104461;28;20799;-80
2023/09/10 02:41:32;;;;;;;7.60;6.80;;;19.50;99.90;;;;;;5121555;28;20283;-80
2023/09/10 02:43:58;;;;;;;10.17;8.23;;;19.60;99.90;;;;;;5105144;28;20187;-80
2023/09/10 02:46:25;;;;;;;9.47;7.63;;;19.50;99.90;;;;;;5121443;28;20191;-84
2023/09/10 02:48:51;;;;;;;9.63;7.07;;;19.50;99.90;;;;;;5124323;27;20426;-85
2023/09/10 02:51:16;;;;;;;7.80;7.00;;;19.50;99.90;;;;;;5109462;28;20440;-80
2023/09/10 02:53:42;;;;;;;9.37;7.50;;;19.50;99.90;;;;;;5124832;27;20230;-81
2023/09/10 02:56:07;;;;;;;8.67;6.90;;;19.40;99.90;;;;;;5124812;27;20202;-80
2023/09/10 02:58:33;;;;;;;8.70;7.47;;;19.40;99.90;;;;;;5109368;28;20208;-80
2023/09/10 03:01:05;;;;;;;9.27;6.93;;;19.40;99.90;;;;;;5109010;28;20206;-84
2023/09/10 03:03:32;;;;;;;9.40;6.60;;;19.40;99.90;;;;;;5108899;28;20264;-80
2023/09/10 03:05:58;;;;;;;7.63;6.40;;;19.30;99.90;;;;;;5124740;27;20431;-85
2023/09/10 03:08:23;;;;;;;11.67;6.80;;;19.40;99.90;;;;;;5124487;27;20721;-84
2023/09/10 03:10:49;;;;;;;10.03;7.63;;;19.40;99.90;;;;;;5108955;28;20205;-81
2023/09/10 03:13:14;;;;;;;7.73;7.00;;;19.30;99.90;;;;;;5108653;27;20179;-85
2023/09/10 03:15:40;;;;;;;8.40;7.30;;;19.30;99.90;;;;;;5108938;28;20301;-80
2023/09/10 03:18:06;;;;;;;8.67;7.53;;;19.30;99.90;;;;;;5124357;27;20220;-80
2023/09/10 03:20:31;;;;;;;9.63;7.40;;;19.30;99.90;;;;;;5124826;27;20223;-84
2023/09/10 03:22:59;;;;;;;7.93;7.10;;;19.30;99.90;;;;;;5108611;28;20174;-84
2023/09/10 03:25:25;;;;;;;9.40;7.77;;;19.20;99.90;;;;;;5124650;27;20195;-84
2023/09/10 03:27:51;;;;;;;10.80;8.60;;;19.20;99.90;;;;;;5108281;28;20837;-80
2023/09/10 03:30:17;;;;;;;7.70;6.90;;;19.20;99.90;;;;;;5124540;27;20466;-81
2023/09/10 03:32:43;;;;;;;8.60;7.50;;;19.20;99.90;;;;;;5124061;27;20178;-80
2023/09/10 03:35:10;;;;;;;9.03;7.77;;;19.20;99.90;;;;;;5124445;27;20487;-85
2023/09/10 03:37:36;;;;;;;10.10;7.40;;;19.20;99.90;;;;;;5124183;27;20176;-84
2023/09/10 03:40:04;;;;;;;8.13;7.30;;;19.10;99.90;;;;;;5108047;28;20771;-85
2023/09/10 03:42:30;;;;;;;13.77;8.10;;;19.10;99.90;;;;;;5107221;28;20564;-80
2023/09/10 03:44:55;;;;;;;11.67;7.60;;;19.00;99.90;;;;;;5108182;28;20444;-80
2023/09/10 03:47:21;;;;;;;8.67;7.60;;;19.00;99.90;;;;;;5107500;28;20181;-85
2023/09/10 03:49:47;;;;;;;7.67;6.83;;;18.90;99.90;;;;;;5123928;27;20694;-81
2023/09/10 03:52:17;;;;;;;9.20;7.70;;;18.90;99.90;;;;;;5107951;28;20560;-80
2023/09/10 03:54:42;;;;;;;8.90;7.60;;;18.90;99.90;;;;;;5123875;27;20222;-85
2023/09/10 03:57:08;;;;;;;7.47;6.50;;;18.80;99.90;;;;;;5123571;27;20818;-85
2023/09/10 03:59:34;;;;;;;14.00;7.40;;;18.80;99.90;;;;;;5107861;28;20192;-80
2023/09/10 04:01:59;;;;;;;9.77;7.73;;;18.80;99.90;;;;;;5123351;27;20209;-84
2023/09/10 04:04:25;;;;;;;7.90;7.10;;;18.80;99.90;;;;;;5123445;27;20185;-85
2023/09/10 04:06:51;;;;;;;7.90;6.80;;;18.80;99.90;;;;;;5107829;27;20172;-84
2023/09/10 04:09:17;;;;;;;8.77;7.10;;;18.80;99.90;;;;;;5123324;27;20787;-84
2023/09/10 04:11:42;;;;;;;10.93;7.50;;;18.80;99.90;;;;;;5123696;27;20381;-80
2023/09/10 04:14:08;;;;;;;8.37;7.20;;;18.80;99.90;;;;;;5107322;28;20256;-81
2023/09/10 04:16:34;;;;;;;8.43;7.00;;;18.80;99.90;;;;;;5123566;27;20287;-80
2023/09/10 04:18:59;;;;;;;9.20;7.73;;;18.80;99.90;;;;;;5123093;27;20653;-80
2023/09/10 04:21:25;;;;;;;10.53;8.03;;;18.80;99.90;;;;;;5107419;28;20190;-85
2023/09/10 04:23:50;;;;;;;9.80;7.40;;;18.80;99.90;;;;;;5107553;28;20559;-84
2023/09/10 04:26:16;;;;;;;9.20;8.10;;;18.80;99.90;;;;;;5107591;28;20230;-81
2023/09/10 04:28:42;;;;;;;9.37;7.30;;;18.80;99.90;;;;;;5122823;27;20174;-84
2023/09/10 04:31:15;;;;;;;12.37;9.23;;;18.80;99.90;;;;;;5122987;27;20288;-80
2023/09/10 04:33:41;;;;;;;10.30;7.80;;;18.80;99.90;;;;;;5122782;27;20193;-80
2023/09/10 04:36:06;;;;;;;8.30;7.07;;;18.80;99.90;;;;;;5122981;27;20521;-85
2023/09/10 04:38:32;;;;;;;9.27;7.50;;;18.80;99.90;;;;;;5122967;27;20185;-81
2023/09/10 04:40:58;;;;;;;8.83;6.80;;;18.80;99.90;;;;;;5123128;27;20224;-85
2023/09/10 04:43:23;;;;;;;10.83;7.60;;;18.80;99.90;;;;;;5106784;28;20225;-85
2023/09/10 04:45:49;;;;;;;9.97;7.33;;;18.70;99.90;;;;;;5121963;27;20235;-80
2023/09/10 04:48:14;;;;;;;11.03;8.60;;;18.70;99.90;;;;;;5122143;27;20212;-84
2023/09/10 04:50:40;;;;;;;11.70;7.70;;;18.80;99.90;;;;;;5107376;28;20219;-80
2023/09/10 04:53:06;;;;;;;8.90;7.17;;;18.80;99.90;;;;;;5122726;27;20174;-80
2023/09/10 04:55:32;;;;;;;10.77;7.50;;;18.80;99.90;;;;;;5122795;27;21155;-84
2023/09/10 04:57:58;;;;;;;9.83;7.27;;;18.80;99.90;;;;;;5106718;28;20208;-80
2023/09/10 05:00:24;;;;;;;9.80;7.60;;;18.80;99.90;;;;;;5101164;27;20466;-80
2023/09/10 05:02:50;;;;;;;9.57;7.27;;;18.80;99.90;;;;;;5083990;28;20180;-84
2023/09/10 05:05:15;;;;;;;10.37;7.37;;;18.70;99.90;;;;;;5085713;28;20221;-80
2023/09/10 05:07:41;;;;;;;9.50;8.20;;;18.80;99.90;;;;;;5084824;28;20225;-84
2023/09/10 05:10:09;;;;;;;9.90;8.07;;;18.80;99.90;;;;;;5086217;28;20210;-84
2023/09/10 05:12:35;;;;;;;9.67;7.73;;;18.80;99.90;;;;;;5086132;28;20228;-84
2023/09/10 05:15:00;;;;;;;10.77;8.60;;;18.80;99.90;;;;;;5084905;28;20505;-82
2023/09/10 05:17:26;;;;;;;11.90;7.43;;;18.90;99.90;;;;;;5084763;28;20213;-84
2023/09/10 05:19:51;;;;;;;11.50;8.93;;;18.90;99.90;;;;;;5086528;28;20416;-82
2023/09/10 05:22:17;;;;;;;10.27;7.97;;;18.90;99.90;;;;;;5083180;28;20274;-80
2023/09/10 05:24:43;;;;;;;8.23;7.43;;;19.00;99.90;;;;;;5084723;28;20198;-80
2023/09/10 05:27:09;;;;;;;9.23;7.70;;;19.10;99.90;;;;;;5082906;28;20194;-83
2023/09/10 05:29:34;;;;;;;11.17;8.53;;;19.20;99.90;;;;;;5084145;28;20191;-85
2023/09/10 05:32:00;;;;;;;12.97;7.73;;;19.20;99.90;;;;;;5083792;28;20708;-83
2023/09/10 05:34:25;;;;;;;9.60;8.27;;;19.30;99.90;;;;;;5084263;28;20274;-83
2023/09/10 05:36:52;;;;;;;8.90;7.00;;;19.40;99.90;;;;;;5083795;28;20685;-79
2023/09/10 05:39:17;;;;;;;9.17;7.40;;;19.50;99.90;;;;;;5084740;28;20483;-84
2023/09/10 05:41:43;;;;;;;9.80;7.40;;;19.60;99.90;;;;;;5086091;28;20507;-80
2023/09/10 05:44:08;;;;;;;7.83;6.83;;;19.70;99.90;;;;;;5084096;28;20198;-84
2023/09/10 05:46:35;;;;;;;9.23;8.30;;;19.80;99.90;;;;;;5083743;28;20200;-80
2023/09/10 05:49:00;;;;;;;11.03;7.83;;;19.90;99.90;;;;;;5083336;28;20572;-84
2023/09/10 05:51:26;;;;;;;9.40;7.87;;;20.00;99.90;;;;;;5085829;28;20474;-81
2023/09/10 05:53:51;;;;;;;9.80;8.70;;;20.00;99.90;;;;;;5084272;28;20176;-84
2023/09/10 05:56:17;;;;;;;10.70;7.90;;;20.10;99.90;;;;;;5084556;28;20616;-84
2023/09/10 05:58:43;;;;;;;11.20;7.33;;;20.20;99.90;;;;;;5085461;28;20172;-84
2023/09/10 06:01:08;;;;;;;8.30;7.30;;;20.30;99.90;;;;;;5085355;28;20211;-84
2023/09/10 06:03:34;;;;;;;8.53;7.20;;;20.40;99.90;;;;;;5085462;28;20168;-84
2023/09/10 06:06:01;;;;;;;9.60;8.00;;;20.50;99.90;;;;;;5083986;28;20550;-84
2023/09/10 06:08:29;;;;;;;11.17;8.43;;;20.70;99.90;;;;;;5085327;28;20172;-80
2023/09/10 06:10:55;;;;;;;8.70;7.80;;;20.80;99.90;;;;;;5085581;28;20446;-84
2023/09/10 06:13:20;;;;;;;11.47;8.30;;;20.90;99.90;;;;;;5085507;28;20416;-84
2023/09/10 06:15:46;;;;;;;10.07;7.50;;;21.00;99.90;;;;;;5085572;28;20663;-84
2023/09/10 06:18:11;;;;;;;11.00;7.87;;;21.10;99.90;;;;;;5085488;28;20230;-84
2023/09/10 06:20:37;;;;;;;8.67;7.47;;;21.20;99.90;;;;;;5085605;28;20212;-85
2023/09/10 06:23:03;;;;;;;8.57;7.60;;;21.30;99.90;;;;;;5087192;28;20663;-84
2023/09/10 06:25:28;;;;;;;7.67;6.57;;;21.40;99.90;;;;;;5089358;28;20555;-84
2023/09/10 06:27:54;;;;;;;10.80;7.20;;;21.50;99.90;;;;;;5087940;28;20577;-80
2023/09/10 06:30:20;;;;;;;8.03;7.23;;;21.70;99.90;;;;;;5087908;28;20212;-84
2023/09/10 06:32:49;;;;;;;10.60;7.63;;;21.80;99.90;;;;;;5089182;28;20164;-84
2023/09/10 06:35:15;;;;;;;9.27;7.47;;;21.90;99.90;;;;;;5089543;28;20231;-84
2023/09/10 06:37:41;;;;;;;7.80;7.03;;;22.00;99.90;;;;;;5089308;28;20974;-83
2023/09/10 06:40:07;;;;;;;8.90;7.60;;;22.10;99.90;;;;;;5089534;28;20278;-81
2023/09/10 06:42:33;;;;;;;8.80;7.90;;;22.20;99.90;;;;;;5087593;28;20515;-83
2023/09/10 06:44:58;;;;;;;8.90;7.70;;;22.30;99.90;;;;;;5089307;28;20625;-81
2023/09/10 06:47:24;;;;;;;11.33;7.80;;;22.40;99.90;;;;;;5087776;28;20263;-81
2023/09/10 06:49:50;;;;;;;8.43;7.40;;;22.60;99.90;;;;;;5087229;28;20231;-80
2023/09/10 06:52:15;;;;;;;9.30;8.20;;;22.70;99.90;;;;;;5087404;28;20199;-81
2023/09/10 06:54:41;;;;;;;9.47;7.63;;;22.80;99.90;;;;;;5089093;28;20211;-85
2023/09/10 06:57:06;;;;;;;7.10;6.40;;;22.90;99.90;;;;;;5087426;28;20180;-80
2023/09/10 06:59:33;;;;;;;7.20;6.50;;;23.00;99.90;;;;;;5087127;28;20636;-80
2023/09/10 07:01:58;;;;;;;8.70;7.23;;;23.10;99.90;;;;;;5087173;28;20181;-83
2023/09/10 07:04:25;;;;;;;7.80;7.00;;;23.20;99.90;;;;;;5088505;28;20499;-84
2023/09/10 07:06:52;;;;;;;8.80;7.43;;;23.30;99.90;;;;;;5088842;28;20174;-80
2023/09/10 07:09:21;;;;;;;9.93;8.13;;;23.40;99.90;;;;;;5087326;28;20987;-84
2023/09/10 07:11:51;;;;;;;8.70;7.37;;;23.60;99.90;;;;;;5087464;28;20780;-80
2023/09/10 07:14:18;;;;;;;8.83;7.90;;;23.70;99.90;;;;;;5087220;28;20470;-81
2023/09/10 07:16:44;;;;;;;10.63;7.43;;;23.80;99.90;;;;;;5087395;28;20419;-81
2023/09/10 07:19:11;;;;;;;8.60;7.47;;;23.90;99.90;;;;;;5088144;28;20729;-81
2023/09/10 07:21:37;;;;;;;8.73;7.90;;;24.00;99.90;;;;;;5087229;28;20427;-83
2023/09/10 07:24:06;;;;;;;11.43;9.07;;;24.10;99.90;;;;;;5086381;28;20473;-84
2023/09/10 07:26:33;;;;;;;8.97;7.60;;;24.20;99.90;;;;;;5087003;28;20504;-84
2023/09/10 07:28:58;;;;;;;8.40;7.50;;;24.30;99.90;;;;;;5088066;28;21075;-81
2023/09/10 07:31:24;;;;;;;9.60;7.50;;;24.40;99.90;;;;;;5086533;28;20543;-81
2023/09/10 07:33:50;;;;;;;9.13;7.57;;;24.50;99.90;;;;;;5085680;28;20180;-80
2023/09/10 07:36:16;;;;;;;7.77;6.60;;;24.60;99.90;;;;;;5088372;28;20443;-83
2023/09/10 07:38:41;;;;;;;8.60;7.40;;;24.70;99.90;;;;;;5086541;28;20176;-81
2023/09/10 07:41:07;;;;;;;8.87;7.40;;;24.90;99.90;;;;;;5088138;28;20199;-81
2023/09/10 07:43:32;;;;;;;7.63;6.87;;;24.90;99.90;;;;;;5086454;28;20179;-84
2023/09/10 07:45:58;;;;;;;7.27;6.43;;;25.00;99.90;;;;;;5087044;28;20211;-84
2023/09/10 07:48:24;;;;;;;7.40;6.70;;;25.10;99.90;;;;;;5086494;28;20180;-81
2023/09/10 07:50:57;;;;;;;6.80;6.20;;;25.20;99.90;;;;;;5086233;28;20365;-86
2023/09/10 07:53:23;;;;;;;6.93;6.33;;;25.30;99.90;;;;;;5086282;28;20184;-81
2023/09/10 07:55:49;;;;;;;7.30;6.60;;;25.40;99.90;;;;;;5087873;28;20476;-84
2023/09/10 07:58:15;;;;;;;7.13;6.43;;;25.50;99.90;;;;;;5086400;28;20420;-83
2023/09/10 08:00:41;;;;;;;7.80;6.80;;;25.60;99.90;;;;;;5087455;28;20425;-82
2023/09/10 08:03:06;;;;;;;7.73;5.67;;;25.80;99.90;;;;;;5086140;28;20709;-84
2023/09/10 08:05:33;;;;;;;9.37;6.83;;;25.80;99.90;;;;;;5086283;28;20532;-84
2023/09/10 08:08:02;;;;;;;7.03;6.33;;;26.00;99.90;;;;;;5086021;28;20441;-80
2023/09/10 08:10:29;;;;;;;7.30;6.27;;;26.10;99.90;;;;;;5086269;28;20740;-81
2023/09/10 08:12:55;;;;;;;7.80;7.00;;;26.20;99.90;;;;;;5085766;28;20477;-84
2023/09/10 08:15:21;;;;;;;7.37;6.00;;;26.30;99.90;;;;;;5085968;28;20480;-81
2023/09/10 08:17:49;;;;;;;7.07;6.10;;;26.40;99.90;;;;;;5087467;28;20181;-84
2023/09/10 08:20:15;;;;;;;8.67;5.93;;;26.50;99.90;;;;;;5087444;28;20205;-85
2023/09/10 08:22:43;;;;;;;7.00;6.40;;;26.60;99.90;;;;;;5086969;28;20405;-82
2023/09/10 08:25:09;;;;;;;6.33;5.80;;;26.70;99.90;;;;;;5085825;28;20207;-85
2023/09/10 08:27:37;;;;;;;6.53;5.83;;;26.90;99.90;;;;;;5086980;28;20764;-81
2023/09/10 08:30:05;;;;;;;6.70;6.07;;;27.00;99.90;;;;;;5087294;28;20551;-84
2023/09/10 08:32:37;;;;;;;6.63;5.90;;;27.40;99.90;;;;;;5086923;28;20947;-80
2023/09/10 08:35:04;;;;;;;6.53;5.83;;;28.00;99.90;;;;;;5085804;28;20509;-80
2023/09/10 08:37:30;;;;;;;7.67;6.10;;;28.80;99.90;;;;;;5085704;28;20846;-80
2023/09/10 08:39:56;;;;;;;7.53;6.77;;;29.40;99.20;;;;;;5085858;28;20546;-84
2023/09/10 08:42:25;;;;;;;7.07;5.80;;;29.90;98.60;;;;;;5085353;28;20957;-81
2023/09/10 08:44:56;;;;;;;6.03;5.47;;;30.30;98.40;;;;;;5084760;28;20534;-84
2023/09/10 08:47:24;;;;;;;5.37;4.87;;;30.60;96.90;;;;;;5085415;28;20411;-80
2023/09/10 08:49:54;;;;;;;6.70;5.50;;;30.60;96.30;;;;;;5085622;28;20481;-81
2023/09/10 08:52:20;;;;;;;6.57;5.93;;;30.70;96.70;;;;;;5084843;28;20480;-81
2023/09/10 08:54:46;;;;;;;6.13;5.53;;;30.70;96.30;;;;;;5085209;28;21026;-80
2023/09/10 08:57:13;;;;;;;6.87;6.13;;;30.60;97.10;;;;;;5084847;28;20448;-81
2023/09/10 08:59:40;;;;;;;5.90;5.40;;;30.60;96.50;;;;;;5085314;28;20203;-81
2023/09/10 09:02:09;;;;;;;5.60;5.03;;;30.40;96.10;;;;;;5084935;28;20418;-80
2023/09/10 09:04:34;;;;;;;5.50;5.00;;;30.20;95.50;;;;;;5085038;28;20482;-83
2023/09/10 09:07:02;;;;;;;6.30;5.73;;;30.10;95.80;;;;;;5085010;28;20937;-81
2023/09/10 09:09:34;;;;;;;5.60;5.10;;;29.90;95.60;;;;;;5085037;28;20185;-83
2023/09/10 09:12:03;;;;;;;6.97;6.10;;;29.90;95.70;;;;;;5086230;28;20478;-84
2023/09/10 09:14:30;;;;;;;8.03;5.53;;;29.80;95.50;;;;;;5086414;28;20479;-84
2023/09/10 09:16:57;;;;;;;6.30;5.23;;;29.80;96.30;;;;;;5084634;28;20412;-83
2023/09/10 09:19:28;;;;;;;5.90;5.40;;;29.70;95.60;;;;;;5086053;28;20456;-81
2023/09/10 09:21:55;;;;;;;5.70;5.20;;;29.60;95.60;;;;;;5085901;28;20413;-84
2023/09/10 09:24:22;;;;;;;5.90;5.30;;;29.60;95.40;;;;;;5084929;28;20918;-81
2023/09/10 09:26:51;;;;;;;5.27;4.77;;;29.60;95.50;;;;;;5084751;28;21039;-84
2023/09/10 09:29:17;;;;;;;5.03;4.53;;;29.50;95.50;;;;;;5086095;28;20424;-84
2023/09/10 09:31:42;;;;;;;5.07;4.50;;;29.50;95.50;;;;;;5084864;28;20409;-83
2023/09/10 09:34:08;;;;;;;5.47;4.97;;;29.50;95.30;;;;;;5086001;28;20231;-81
2023/09/10 09:36:36;;;;;;;5.40;4.90;;;29.40;95.20;;;;;;5084723;28;20727;-84
2023/09/10 09:39:07;;;;;;;5.53;5.00;;;29.30;95.30;;;;;;5085577;28;20577;-85
2023/09/10 09:41:35;;;;;;;5.37;4.90;;;29.30;95.40;;;;;;5084665;28;20444;-84
2023/09/10 09:44:02;;;;;;;5.40;4.90;;;29.20;95.30;;;;;;5085650;28;20424;-85
2023/09/10 09:46:34;;;;;;;5.33;4.83;;;29.20;95.40;;;;;;5084714;28;20436;-81
2023/09/10 09:49:00;;;;;;;7.10;5.30;;;29.30;95.60;;;;;;5084927;28;20683;-81
2023/09/10 09:51:26;;;;;;;5.57;5.07;;;29.20;95.90;;;;;;5084061;28;20527;-85
2023/09/10 09:53:52;;;;;;;5.93;5.37;;;29.30;96.10;;;;;;5084710;28;20420;-84
2023/09/10 09:56:18;;;;;;;5.57;5.07;;;29.30;96.40;;;;;;5086963;28;20490;-84
2023/09/10 09:58:47;;;;;;;5.77;5.27;;;29.30;95.80;;;;;;5090796;28;20426;-81
2023/09/10 10:01:12;;;;;;;7.63;4.90;;;29.40;95.90;;;;;;5092450;28;20284;-81
2023/09/10 10:03:39;;;;;;;5.40;4.90;;;29.40;95.40;;;;;;5091877;28;20967;-84
2023/09/10 10:06:06;;;;;;;5.17;4.77;;;29.30;95.30;;;;;;5092393;28;20590;-81
2023/09/10 10:08:32;;;;;;;6.10;4.80;;;29.30;95.20;;;;;;5090938;28;20421;-84
2023/09/10 10:10:58;;;;;;;6.40;5.30;;;29.30;95.20;;;;;;5091002;28;20853;-84
2023/09/10 10:13:26;;;;;;;6.13;5.57;;;29.30;95.10;;;;;;5090873;28;20424;-84
2023/09/10 10:15:54;;;;;;;6.67;6.10;;;29.40;95.10;;;;;;5092165;28;20223;-84
2023/09/10 10:18:22;;;;;;;5.50;4.80;;;29.40;95.00;;;;;;5090909;28;20527;-81
2023/09/10 10:20:49;;;;;;;6.40;5.43;;;29.30;94.90;;;;;;5090248;28;20425;-80
2023/09/10 10:23:19;;;;;;;5.27;4.70;;;29.30;95.20;;;;;;5091873;28;20898;-84
2023/09/10 10:25:46;;;;;;;5.97;5.37;;;29.40;95.30;;;;;;5090755;28;20446;-84
2023/09/10 10:28:12;;;;;;;4.97;4.57;;;29.40;95.10;;;;;;5090877;28;20479;-80
2023/09/10 10:30:57;;;;;;;5.20;4.80;;;29.50;95.10;;;;;;5090781;28;20445;-84
2023/09/10 10:33:26;;;;;;;5.47;4.93;;;29.50;94.90;;;;;;5092127;28;20446;-80
2023/09/10 10:36:02;;;;;;;5.83;4.90;;;29.50;95.10;;;;;;5092005;28;20479;-83
2023/09/10 10:38:32;;;;;;;5.17;4.70;;;29.50;95.00;;;;;;5092120;28;20422;-81
2023/09/10 10:41:11;;;;;;;5.63;5.13;;;29.60;94.70;;;;;;5091106;28;20438;-84
2023/09/10 10:43:42;;;;;;;5.70;5.10;;;29.60;94.80;;;;;;5090456;28;20419;-84
2023/09/10 10:46:08;;;;;;;6.10;5.50;;;29.50;94.60;;;;;;5092248;28;20884;-81
2023/09/10 10:48:39;;;;;;;5.43;4.83;;;29.60;94.60;;;;;;5091996;28;20758;-84
2023/09/10 10:51:10;;;;;;;6.53;4.50;;;29.50;94.40;;;;;;5092358;28;20891;-84
2023/09/10 10:53:35;;;;;;;5.10;4.60;;;29.60;94.70;;;;;;5090660;28;20435;-84
2023/09/10 10:56:04;;;;;;;6.33;4.27;;;29.50;94.40;;;;;;5091089;28;20466;-81
2023/09/10 10:58:30;;;;;;;5.80;5.13;;;29.50;94.30;;;;;;5091634;28;20231;-84
2023/09/10 11:00:58;;;;;;;5.20;4.77;;;29.50;94.50;;;;;;5091962;28;20439;-84
2023/09/10 11:03:25;;;;;;;4.70;4.30;;;29.60;94.30;;;;;;5090403;28;20438;-84
2023/09/10 11:05:54;;;;;;;4.43;4.03;;;29.60;94.20;;;;;;5090373;28;20866;-81
2023/09/10 11:08:43;;;;;;;5.37;4.87;;;29.50;94.10;;;;;;5088213;28;20447;-81
2023/09/10 11:11:46;;;;;;;5.20;4.80;;;29.50;93.90;;;;;;5087340;28;20451;-81
2023/09/10 11:14:12;;;;;;;4.73;4.30;;;29.60;93.90;;;;;;5086898;28;20434;-85
2023/09/10 11:16:44;;;;;;;5.57;4.97;;;29.60;93.90;;;;;;5087461;28;20732;-83
2023/09/10 11:19:56;;;;;;;4.50;3.90;;;29.60;93.80;;;;;;5087066;28;20323;-81
2023/09/10 11:22:22;;;;;;;8.40;4.90;;;29.50;93.90;;;;;;5086129;28;20432;-84
2023/09/10 11:25:06;;;;;;;5.87;5.27;;;29.50;94.10;;;;;;5087694;28;20496;-80
2023/09/10 11:27:33;;;;;;;6.17;4.97;;;29.50;94.00;;;;;;5086700;28;20193;-81
2023/09/10 11:30:18;;;;;;;5.87;4.77;;;29.60;94.10;;;;;;5088490;28;21092;-84
2023/09/10 11:32:44;;;;;;;5.70;5.03;;;29.70;93.60;;;;;;5086595;28;20481;-80
2023/09/10 11:35:19;;;;;;;4.50;4.10;;;29.80;93.50;;;;;;5088080;28;20480;-85
2023/09/10 11:37:48;;;;;;;6.33;4.67;;;29.80;93.60;;;;;;5088260;28;20574;-82
2023/09/10 11:40:14;;;;;;;6.07;5.40;;;29.80;93.40;;;;;;5088035;28;20487;-84
2023/09/10 11:42:43;;;;;;;5.80;4.57;;;29.80;93.60;;;;;;5086531;28;20427;-83
2023/09/10 11:45:10;;;;;;;5.40;4.90;;;29.80;93.60;;;;;;5087632;28;20441;-80
2023/09/10 11:47:43;;;;;;;4.57;4.03;;;29.70;93.70;;;;;;5084800;28;20807;-84
2023/09/10 11:50:11;;;;;;;5.00;4.07;;;29.70;93.60;;;;;;5084575;28;20513;-84
2023/09/10 11:52:37;;;;;;;4.50;4.10;;;29.80;93.60;;;;;;5086027;28;20491;-84
2023/09/10 11:55:09;;;;;;;6.03;4.63;;;29.80;93.50;;;;;;5084714;28;20491;-81
2023/09/10 11:57:36;;;;;;;5.47;4.30;;;29.80;93.50;;;;;;5086022;28;20415;-84
2023/09/10 12:00:03;;;;;;;4.97;4.47;;;29.80;93.40;;;;;;5083478;28;20443;-84
2023/09/10 12:02:29;;;;;;;5.23;4.60;;;29.80;93.40;;;;;;5087572;28;20404;-84
2023/09/10 12:04:58;;;;;;;4.17;3.80;;;29.80;93.40;;;;;;5087536;28;20444;-85
2023/09/10 12:07:24;;;;;;;5.83;4.57;;;29.70;93.40;;;;;;5087299;28;20187;-81
2023/09/10 12:09:50;;;;;;;7.73;5.83;;;29.70;93.20;;;;;;5085952;28;20476;-84
2023/09/10 12:12:19;;;;;;;5.90;4.50;;;29.70;92.90;;;;;;5087677;28;20182;-83
2023/09/10 12:14:45;;;;;;;4.40;4.00;;;29.80;93.10;;;;;;5087693;28;20514;-84
2023/09/10 12:17:11;;;;;;;4.67;4.30;;;29.80;93.30;;;;;;5085864;28;20657;-82
2023/09/10 12:19:37;;;;;;;4.93;4.53;;;29.80;93.30;;;;;;5086494;28;20953;-80
2023/09/10 12:22:09;;;;;;;8.43;4.80;;;29.80;93.30;;;;;;5085404;28;20179;-83
2023/09/10 12:24:35;;;;;;;7.20;4.60;;;29.90;93.40;;;;;;5085645;28;20452;-84
2023/09/10 12:27:02;;;;;;;6.10;4.30;;;30.00;93.30;;;;;;5085535;28;20423;-84
2023/09/10 12:29:28;;;;;;;6.13;4.60;;;30.00;93.20;;;;;;5085624;28;20701;-80
2023/09/10 12:31:56;;;;;;;4.07;3.67;;;30.10;93.10;;;;;;5087233;28;20808;-81
2023/09/10 12:34:22;;;;;;;7.10;4.73;;;30.10;93.00;;;;;;5085439;28;20464;-81
2023/09/10 12:36:50;;;;;;;6.17;4.30;;;30.10;93.00;;;;;;5087131;28;20919;-83
2023/09/10 12:39:20;;;;;;;6.27;4.33;;;30.00;93.00;;;;;;5084141;28;20428;-84
2023/09/10 12:41:53;;;;;;;4.30;3.90;;;30.00;93.00;;;;;;5085124;28;20477;-84
2023/09/10 12:44:23;;;;;;;6.77;3.47;;;30.00;93.00;;;;;;5087125;28;20694;-81
2023/09/10 12:46:49;;;;;;;5.10;4.60;;;30.00;93.10;;;;;;5085486;28;21021;-84